Time;durP1;ratioP1;P1;durP2;ratioP2;P2;SDS_P1;SDS_P2;PMS_P1;PMS_P2;Temp;Humidity;BMP_temperature;BMP_pressure;BME280_temperature;BME280_humidity;BME280_pressure;Samples;Min_cycle;Max_cycle;Signal;HPM_P1;HPM_P2
2022/01/18 00:00:54;;;;;;;39.70;8.18;;;6.80;99.90;;;;;;6166735;23;20032;-84
2022/01/18 00:03:19;;;;;;;33.97;6.68;;;6.80;99.90;;;;;;6215761;23;20130;-84
2022/01/18 00:05:48;;;;;;;33.38;7.43;;;6.70;99.90;;;;;;6215569;23;20103;-84
2022/01/18 00:08:15;;;;;;;41.22;6.63;;;7.40;99.90;;;;;;6191080;23;20024;-84
2022/01/18 00:10:42;;;;;;;38.10;7.03;;;6.80;99.90;;;;;;6191290;23;20100;-84
2022/01/18 00:13:22;;;;;;;39.85;6.22;;;6.60;99.90;;;;;;6190565;23;20047;-84
2022/01/18 00:18:36;;;;;;;41.17;7.22;;;6.50;99.90;;;;;;6240712;23;20016;-84
2022/01/18 00:23:34;;;;;;;35.65;6.00;;;6.30;99.90;;;;;;6215624;23;20016;-84
2022/01/18 00:26:00;;;;;;;45.05;6.65;;;6.20;99.90;;;;;;6215193;23;20008;-84
2022/01/18 00:28:29;;;;;;;40.47;6.68;;;6.30;99.90;;;;;;6214820;23;20098;-84
2022/01/18 00:36:09;;;;;;;47.17;7.82;;;6.30;99.90;;;;;;6240834;23;20016;-84
2022/01/18 00:38:46;;;;;;;31.35;6.28;;;6.50;99.90;;;;;;6215219;23;20047;-84
2022/01/18 00:41:13;;;;;;;35.25;7.15;;;6.40;99.90;;;;;;6167699;23;20154;-84
2022/01/18 00:43:41;;;;;;;37.25;7.65;;;6.50;99.90;;;;;;6214571;23;20023;-84
2022/01/18 00:46:07;;;;;;;39.50;6.55;;;6.50;99.90;;;;;;6215384;23;20466;-84
2022/01/18 00:48:35;;;;;;;48.60;6.95;;;6.40;99.90;;;;;;6214915;23;20016;-84
2022/01/18 00:51:04;;;;;;;44.97;6.68;;;6.50;99.90;;;;;;6190465;23;20027;-84
2022/01/18 00:53:35;;;;;;;38.83;6.95;;;6.50;99.90;;;;;;6215011;23;20070;-84
2022/01/18 00:56:18;;;;;;;53.05;8.32;;;6.50;99.90;;;;;;6215319;23;20027;-84
2022/01/18 00:58:46;;;;;;;37.22;6.75;;;6.50;99.90;;;;;;6193135;23;20027;-84
2022/01/18 01:01:13;;;;;;;36.92;6.25;;;6.50;99.90;;;;;;6215311;23;20067;-84
2022/01/18 01:03:39;;;;;;;38.20;6.95;;;6.50;99.90;;;;;;6240155;23;20016;-84
2022/01/18 01:06:07;;;;;;;36.95;6.75;;;6.70;99.90;;;;;;6189089;23;20089;-84
2022/01/18 01:08:34;;;;;;;46.95;7.18;;;6.60;99.90;;;;;;6214793;23;20023;-84
2022/01/18 01:11:02;;;;;;;38.55;6.63;;;6.70;99.90;;;;;;6239319;23;20027;-84
2022/01/18 01:13:31;;;;;;;28.67;6.40;;;6.60;99.90;;;;;;6214818;23;20062;-84
2022/01/18 01:43:24;;;;;;;38.95;6.30;;;6.60;99.90;;;;;;6214232;23;20020;-84
2022/01/18 01:45:51;;;;;;;33.72;5.80;;;6.50;99.90;;;;;;6190341;23;20012;-84
2022/01/18 01:48:19;;;;;;;35.17;6.03;;;6.50;99.90;;;;;;6189873;23;20639;-84
2022/01/18 01:51:02;;;;;;;32.33;6.18;;;6.50;99.90;;;;;;6189575;23;20020;-84
2022/01/18 01:53:29;;;;;;;32.38;6.05;;;6.50;99.90;;;;;;6213881;23;20024;-84
2022/01/18 01:55:55;;;;;;;33.40;5.93;;;6.50;99.90;;;;;;6214538;23;20020;-84
2022/01/18 01:58:24;;;;;;;30.63;6.72;;;6.50;99.90;;;;;;6189504;23;20020;-84
2022/01/18 02:00:52;;;;;;;41.58;6.78;;;6.50;99.90;;;;;;6214168;23;20047;-84
2022/01/18 02:03:19;;;;;;;34.47;7.05;;;6.50;99.90;;;;;;6239997;23;20019;-84
2022/01/18 02:05:45;;;;;;;32.50;5.32;;;6.50;99.90;;;;;;6188967;23;20440;-84
2022/01/18 02:08:12;;;;;;;40.13;6.60;;;6.40;99.90;;;;;;6189487;23;20023;-85
2022/01/18 02:10:40;;;;;;;37.53;6.65;;;6.40;99.90;;;;;;6212974;23;20023;-84
2022/01/18 02:13:07;;;;;;;39.22;6.45;;;6.40;99.90;;;;;;6189727;23;20027;-84
2022/01/18 02:15:38;;;;;;;33.97;6.68;;;6.40;99.90;;;;;;6240549;23;20020;-84
2022/01/18 02:23:33;;;;;;;29.38;6.47;;;6.50;99.90;;;;;;6194112;23;20016;-84
2022/01/18 02:25:59;;;;;;;32.20;6.47;;;6.40;99.90;;;;;;6215635;23;20019;-84
2022/01/18 02:28:25;;;;;;;25.92;5.85;;;6.30;99.90;;;;;;6190579;23;20012;-84
2022/01/18 02:30:52;;;;;;;28.10;6.10;;;6.30;99.90;;;;;;6189902;23;20027;-84
2022/01/18 02:33:18;;;;;;;38.22;7.40;;;6.30;99.90;;;;;;6215172;23;20058;-84
2022/01/18 02:35:45;;;;;;;35.15;6.72;;;6.20;99.90;;;;;;6189701;23;20024;-84
2022/01/18 02:38:11;;;;;;;30.77;7.05;;;6.20;99.90;;;;;;6190325;23;20031;-85
2022/01/18 02:40:37;;;;;;;38.28;7.60;;;6.40;99.90;;;;;;6189146;23;20012;-84
2022/01/18 02:45:54;;;;;;;38.83;7.70;;;6.20;99.90;;;;;;6215136;23;20051;-84
2022/01/18 02:48:20;;;;;;;33.30;7.35;;;6.20;99.90;;;;;;6190729;23;20016;-84
2022/01/18 02:50:47;;;;;;;33.70;7.00;;;6.20;99.90;;;;;;6189774;23;20397;-84
2022/01/18 02:53:13;;;;;;;37.13;7.07;;;6.10;99.90;;;;;;6190655;23;20023;-83
2022/01/18 02:55:40;;;;;;;36.42;6.47;;;6.50;99.90;;;;;;6190239;23;20342;-84
2022/01/18 02:58:09;;;;;;;32.40;7.55;;;6.10;99.90;;;;;;6214923;23;20016;-84
2022/01/18 03:03:10;;;;;;;32.33;7.10;;;6.10;99.90;;;;;;6215084;23;20023;-84
2022/01/18 03:03:37;;;;;;;32.60;7.20;;;6.10;99.90;;;;;;6195810;23;20012;-84
2022/01/18 03:06:04;;;;;;;40.13;7.68;;;6.10;99.90;;;;;;6240044;23;20020;-84
2022/01/18 03:08:31;;;;;;;35.45;7.03;;;6.00;99.90;;;;;;6189945;23;20017;-84
2022/01/18 03:10:58;;;;;;;39.85;8.35;;;6.00;99.90;;;;;;6214980;23;20027;-84
2022/01/18 03:13:24;;;;;;;39.35;8.48;;;6.20;99.90;;;;;;6190004;23;20529;-84
2022/01/18 03:15:49;;;;;;;50.22;9.27;;;6.30;99.90;;;;;;6189965;23;20020;-84
2022/01/18 03:18:16;;;;;;;51.28;8.93;;;6.00;99.90;;;;;;6190306;23;20074;-84
2022/01/18 03:20:42;;;;;;;53.58;9.10;;;6.00;99.90;;;;;;6190057;23;20051;-84
2022/01/18 03:23:14;;;;;;;39.50;8.35;;;6.00;99.90;;;;;;6190299;23;20051;-84
2022/01/18 03:25:52;;;;;;;31.48;8.40;;;6.60;99.90;;;;;;6215021;23;20043;-84
2022/01/18 03:28:18;;;;;;;33.60;8.00;;;6.20;99.90;;;;;;6192772;23;20051;-84
2022/01/18 03:30:47;;;;;;;39.17;8.18;;;5.90;99.90;;;;;;6190140;23;20020;-84
2022/01/18 03:33:18;;;;;;;34.97;8.73;;;6.00;99.90;;;;;;6215049;23;20027;-84
2022/01/18 03:35:45;;;;;;;44.22;8.75;;;6.00;99.90;;;;;;6214883;23;20016;-84
2022/01/18 03:38:12;;;;;;;44.40;8.73;;;6.00;99.90;;;;;;6192188;23;20532;-84
2022/01/18 03:40:37;;;;;;;42.47;9.27;;;6.00;99.90;;;;;;6191474;23;20459;-84
2022/01/18 03:43:06;;;;;;;45.22;9.07;;;6.00;99.90;;;;;;6191770;23;20020;-84
2022/01/18 03:45:40;;;;;;;40.50;8.32;;;6.00;99.90;;;;;;6166943;23;20012;-84
2022/01/18 03:48:10;;;;;;;41.40;8.35;;;6.00;99.90;;;;;;6216700;23;20012;-85
2022/01/18 03:50:36;;;;;;;39.25;8.68;;;6.10;99.90;;;;;;6216218;23;20027;-84
2022/01/18 03:53:01;;;;;;;39.63;7.88;;;6.00;99.90;;;;;;6191624;23;20360;-84
2022/01/18 03:55:27;;;;;;;34.10;7.63;;;5.90;99.90;;;;;;6191054;23;20019;-84
2022/01/18 03:57:53;;;;;;;26.63;6.80;;;6.20;99.90;;;;;;6216559;23;20020;-84
2022/01/18 04:00:25;;;;;;;38.17;8.15;;;5.90;99.90;;;;;;6191375;23;20114;-84
2022/01/18 04:02:53;;;;;;;26.02;7.18;;;5.90;99.90;;;;;;6216490;23;20019;-84
2022/01/18 04:05:19;;;;;;;32.67;7.45;;;5.90;99.90;;;;;;6215850;23;20020;-84
2022/01/18 04:07:45;;;;;;;28.52;7.00;;;5.90;99.90;;;;;;6191605;23;20070;-84
2022/01/18 04:10:13;;;;;;;29.38;6.63;;;5.90;99.90;;;;;;6216430;23;20571;-84
2022/01/18 04:12:40;;;;;;;21.30;6.28;;;5.90;99.90;;;;;;6216691;23;20016;-84
2022/01/18 04:15:11;;;;;;;30.08;6.50;;;5.90;99.90;;;;;;6166448;23;20020;-84
2022/01/18 04:28:28;;;;;;;28.05;6.15;;;6.60;99.90;;;;;;6249238;23;20501;-84
2022/01/18 04:30:53;;;;;;;25.95;7.60;;;5.80;99.90;;;;;;6240429;23;20046;-84
2022/01/18 04:33:19;;;;;;;25.40;6.28;;;5.80;99.90;;;;;;6215609;23;20008;-84
2022/01/18 04:35:46;;;;;;;32.40;7.03;;;5.80;99.90;;;;;;6207410;23;20024;-84
2022/01/18 04:38:11;;;;;;;28.25;6.45;;;5.90;99.90;;;;;;6210662;23;20050;-84
2022/01/18 04:40:41;;;;;;;20.33;6.00;;;5.80;99.90;;;;;;6234328;23;20016;-84
2022/01/18 04:43:21;;;;;;;24.42;5.47;;;5.70;99.90;;;;;;6192880;23;20051;-84
2022/01/18 04:48:33;;;;;;;29.08;5.95;;;5.70;99.90;;;;;;6216117;23;20019;-84
2022/01/18 04:51:03;;;;;;;31.65;5.90;;;6.00;99.90;;;;;;6191827;23;20024;-84
2022/01/18 04:53:32;;;;;;;24.83;5.10;;;5.70;99.90;;;;;;6216036;23;20099;-84
2022/01/18 04:56:06;;;;;;;19.25;5.35;;;5.80;99.90;;;;;;6190923;23;20123;-84
2022/01/18 04:58:32;;;;;;;22.88;4.53;;;5.80;99.90;;;;;;6190905;23;20100;-84
2022/01/18 05:01:00;;;;;;;28.80;4.85;;;5.70;99.90;;;;;;6191260;23;20052;-83
2022/01/18 05:03:30;;;;;;;21.00;5.60;;;5.80;99.90;;;;;;6215691;23;20023;-83
2022/01/18 05:06:02;;;;;;;25.60;5.57;;;5.70;99.90;;;;;;6215559;23;20035;-83
2022/01/18 05:08:28;;;;;;;19.20;5.32;;;5.80;99.90;;;;;;6216214;23;20030;-84
2022/01/18 05:10:58;;;;;;;17.08;5.25;;;5.80;99.90;;;;;;6215839;23;20098;-83
2022/01/18 05:23:57;;;;;;;16.58;4.65;;;5.70;99.90;;;;;;6190961;23;20044;-84
2022/01/18 05:26:23;;;;;;;22.55;4.55;;;5.90;99.90;;;;;;6190860;23;20034;-83
2022/01/18 05:28:49;;;;;;;21.88;4.88;;;5.70;99.90;;;;;;6215918;23;20016;-84
2022/01/18 05:31:15;;;;;;;25.58;4.80;;;5.70;99.90;;;;;;6215646;23;20513;-84
2022/01/18 05:33:42;;;;;;;19.65;4.70;;;5.70;99.90;;;;;;6215663;23;20070;-83
2022/01/18 05:36:09;;;;;;;26.70;5.68;;;6.60;99.90;;;;;;6215543;23;20027;-83
2022/01/18 05:38:35;;;;;;;23.83;5.40;;;5.70;99.90;;;;;;6191136;23;20107;-83
2022/01/18 05:41:06;;;;;;;28.35;5.78;;;5.70;99.90;;;;;;6190583;23;20020;-84
2022/01/18 05:43:32;;;;;;;23.83;6.07;;;5.60;99.90;;;;;;6215524;23;20090;-83
2022/01/18 05:45:59;;;;;;;26.33;6.78;;;5.80;99.90;;;;;;6215588;23;20043;-84
2022/01/18 05:48:25;;;;;;;21.05;6.20;;;5.60;99.90;;;;;;6190585;23;20035;-83
2022/01/18 05:50:52;;;;;;;20.15;5.40;;;5.60;99.90;;;;;;6240584;23;20119;-83
2022/01/18 05:53:18;;;;;;;15.05;5.35;;;5.60;99.90;;;;;;6190387;23;20123;-84
2022/01/18 05:55:44;;;;;;;17.25;6.18;;;5.60;99.90;;;;;;6191283;23;20059;-83
2022/01/18 05:58:10;;;;;;;19.90;5.43;;;5.60;99.90;;;;;;6190012;23;20448;-84
2022/01/18 06:00:39;;;;;;;20.33;5.22;;;5.60;99.90;;;;;;6189990;23;20527;-84
2022/01/18 06:03:11;;;;;;;17.45;5.22;;;6.20;99.90;;;;;;6214279;23;20004;-84
2022/01/18 06:08:22;;;;;;;14.93;4.75;;;5.50;99.90;;;;;;6215177;23;20434;-83
2022/01/18 06:10:48;;;;;;;22.23;4.63;;;5.50;99.90;;;;;;6190078;23;20020;-84
2022/01/18 06:13:14;;;;;;;19.88;4.45;;;5.50;99.90;;;;;;6215207;23;20020;-83
2022/01/18 06:15:40;;;;;;;25.95;5.28;;;5.50;99.90;;;;;;6190863;23;20027;-84
2022/01/18 06:18:06;;;;;;;20.83;5.43;;;5.50;99.90;;;;;;6215693;23;20408;-84
2022/01/18 06:20:33;;;;;;;20.27;5.50;;;5.50;99.90;;;;;;6215421;23;20051;-84
2022/01/18 06:22:59;;;;;;;24.50;5.78;;;5.60;99.90;;;;;;6190579;23;20462;-83
2022/01/18 06:25:24;;;;;;;16.45;5.35;;;5.70;99.90;;;;;;6215268;23;20027;-83
2022/01/18 06:27:51;;;;;;;21.20;5.18;;;5.50;99.90;;;;;;6189875;23;20012;-84
2022/01/18 06:30:18;;;;;;;19.55;5.47;;;5.50;99.90;;;;;;6214834;23;20076;-85
2022/01/18 06:32:44;;;;;;;27.15;5.75;;;5.50;99.90;;;;;;6189481;23;20070;-83
2022/01/18 06:35:11;;;;;;;18.23;6.13;;;5.50;99.90;;;;;;6189008;23;20383;-84
2022/01/18 06:37:38;;;;;;;22.60;5.57;;;5.50;99.90;;;;;;6239803;23;20054;-83
2022/01/18 06:40:06;;;;;;;22.73;5.72;;;5.80;99.90;;;;;;6190322;23;20477;-84
2022/01/18 06:42:32;;;;;;;17.65;5.15;;;5.50;99.90;;;;;;6214967;23;20102;-83
2022/01/18 06:44:58;;;;;;;20.40;6.65;;;5.50;99.90;;;;;;6214346;23;20016;-83
2022/01/18 06:47:24;;;;;;;21.67;6.15;;;5.50;99.90;;;;;;6214619;23;20016;-83
2022/01/18 06:49:49;;;;;;;19.25;4.75;;;5.50;99.90;;;;;;6214288;23;20351;-83
2022/01/18 06:52:16;;;;;;;12.43;4.28;;;5.40;99.90;;;;;;6214480;23;20024;-83
2022/01/18 06:54:41;;;;;;;17.60;4.68;;;5.40;99.90;;;;;;6214015;23;20066;-83
2022/01/18 06:57:07;;;;;;;17.02;4.43;;;5.40;99.90;;;;;;6189337;23;20020;-83
2022/01/18 06:59:34;;;;;;;22.80;4.88;;;5.50;99.90;;;;;;6189017;23;20016;-83
2022/01/18 07:02:00;;;;;;;18.35;5.57;;;5.40;99.90;;;;;;6189752;23;20016;-83
2022/01/18 07:04:27;;;;;;;18.88;4.03;;;5.50;99.90;;;;;;6165148;23;20066;-83
2022/01/18 07:06:52;;;;;;;14.65;4.32;;;5.50;99.90;;;;;;6213182;23;20392;-83
2022/01/18 07:09:23;;;;;;;22.38;4.63;;;5.50;99.90;;;;;;6189363;23;20012;-84
2022/01/18 07:11:50;;;;;;;18.95;4.40;;;5.60;99.90;;;;;;6215616;23;20016;-83
2022/01/18 07:14:16;;;;;;;14.68;4.82;;;5.40;99.90;;;;;;6191150;23;20012;-83
2022/01/18 07:16:41;;;;;;;20.73;5.25;;;5.50;99.90;;;;;;6175772;23;20499;-82
2022/01/18 07:19:07;;;;;;;17.77;4.30;;;5.40;99.90;;;;;;6180454;23;20016;-82
2022/01/18 07:21:33;;;;;;;16.30;4.47;;;5.50;99.90;;;;;;6180443;23;20024;-82
2022/01/18 07:24:05;;;;;;;15.70;4.00;;;5.40;99.90;;;;;;6181580;23;20939;-84
2022/01/18 07:26:32;;;;;;;16.20;3.80;;;5.40;99.90;;;;;;6206166;23;20023;-83
2022/01/18 07:28:58;;;;;;;17.80;4.57;;;5.40;99.90;;;;;;6181564;23;20242;-84
2022/01/18 07:31:24;;;;;;;21.00;4.75;;;5.40;99.90;;;;;;6180217;23;20093;-86
2022/01/18 07:33:49;;;;;;;16.00;3.80;;;5.40;99.90;;;;;;6182589;23;20023;-88
2022/01/18 07:36:15;;;;;;;20.60;4.28;;;5.40;99.90;;;;;;6182360;23;20030;-87
2022/01/18 07:38:41;;;;;;;18.58;4.90;;;6.30;99.90;;;;;;6182181;23;20432;-87
2022/01/18 07:41:07;;;;;;;15.18;3.60;;;5.40;99.90;;;;;;6208029;23;20054;-87
2022/01/18 07:43:33;;;;;;;20.63;4.28;;;5.40;99.90;;;;;;6182475;23;20016;-86
2022/01/18 07:45:58;;;;;;;14.35;4.00;;;5.50;99.90;;;;;;6181815;23;20523;-87
2022/01/18 07:48:30;;;;;;;11.50;3.22;;;5.40;99.90;;;;;;6182029;23;20047;-84
2022/01/18 07:50:58;;;;;;;13.82;3.85;;;5.40;99.90;;;;;;6184347;23;20016;-83
2022/01/18 07:53:24;;;;;;;14.98;3.83;;;5.40;99.90;;;;;;6182068;23;20478;-84
2022/01/18 07:55:50;;;;;;;18.75;4.13;;;5.40;99.90;;;;;;6206772;23;20016;-84
2022/01/18 07:58:16;;;;;;;12.65;3.70;;;5.40;99.90;;;;;;6207893;23;20035;-84
2022/01/18 08:00:47;;;;;;;17.35;4.25;;;5.50;99.90;;;;;;6182466;23;20448;-84
2022/01/18 08:03:13;;;;;;;18.42;4.22;;;5.50;99.90;;;;;;6184045;23;20073;-83
2022/01/18 08:05:39;;;;;;;22.27;4.20;;;5.50;99.90;;;;;;6209936;23;20150;-84
2022/01/18 08:08:05;;;;;;;17.58;4.28;;;5.50;99.90;;;;;;6184057;23;20085;-83
2022/01/18 08:10:32;;;;;;;16.08;4.07;;;5.50;99.90;;;;;;6208961;23;20023;-83
2022/01/18 08:13:02;;;;;;;14.82;3.80;;;5.50;99.90;;;;;;6183667;23;20020;-83
2022/01/18 08:15:40;;;;;;;13.48;4.13;;;5.50;99.90;;;;;;6206924;23;20059;-83
2022/01/18 08:18:12;;;;;;;18.05;4.10;;;5.50;99.90;;;;;;6205479;23;20408;-81
2022/01/18 08:20:39;;;;;;;19.05;4.10;;;5.50;99.90;;;;;;6181156;23;20023;-82
2022/01/18 08:23:04;;;;;;;16.45;3.85;;;5.50;99.90;;;;;;6181238;23;20054;-83
2022/01/18 08:25:30;;;;;;;20.88;3.95;;;5.50;99.90;;;;;;6180966;23;20027;-81
2022/01/18 08:27:57;;;;;;;15.90;4.43;;;5.60;99.90;;;;;;6181484;23;20070;-84
2022/01/18 08:30:23;;;;;;;17.23;4.18;;;5.50;99.90;;;;;;6205875;23;20070;-83
2022/01/18 08:32:50;;;;;;;17.58;4.30;;;5.60;99.90;;;;;;6206780;23;20023;-83
2022/01/18 08:35:17;;;;;;;16.92;4.45;;;5.50;99.90;;;;;;6181289;23;20023;-85
2022/01/18 08:37:43;;;;;;;16.65;4.38;;;5.50;99.90;;;;;;6205985;23;20020;-85
2022/01/18 08:40:12;;;;;;;16.27;4.20;;;5.80;99.90;;;;;;6182990;23;20027;-88
2022/01/18 08:42:37;;;;;;;13.98;4.93;;;5.60;99.90;;;;;;6182537;23;20047;-85
2022/01/18 08:45:04;;;;;;;16.25;4.80;;;5.60;99.90;;;;;;6181481;23;20012;-85
2022/01/18 08:47:33;;;;;;;17.13;4.80;;;5.60;99.90;;;;;;6207480;23;20047;-83
2022/01/18 08:49:59;;;;;;;17.15;4.90;;;5.60;99.90;;;;;;6233196;23;20070;-84
2022/01/18 08:52:24;;;;;;;15.82;3.80;;;5.70;99.90;;;;;;6181731;23;20023;-84
2022/01/18 08:54:50;;;;;;;19.50;5.15;;;6.70;99.90;;;;;;6182108;23;20020;-83
2022/01/18 08:57:16;;;;;;;14.95;5.05;;;5.70;99.90;;;;;;6181746;23;20020;-83
2022/01/18 08:59:43;;;;;;;18.55;5.03;;;5.70;99.90;;;;;;6156984;23;20632;-85
2022/01/18 09:02:10;;;;;;;14.23;4.90;;;5.70;99.90;;;;;;6157600;23;20058;-85
2022/01/18 09:04:36;;;;;;;19.40;5.38;;;5.70;99.90;;;;;;6206615;23;20016;-84
2022/01/18 09:07:07;;;;;;;23.25;5.25;;;5.70;99.90;;;;;;6180614;23;20024;-86
2022/01/18 09:09:35;;;;;;;18.42;5.57;;;6.70;99.90;;;;;;6205780;23;20149;-88
2022/01/18 09:12:01;;;;;;;18.35;4.75;;;5.80;99.90;;;;;;6181374;23;20031;-86
2022/01/18 09:14:27;;;;;;;18.27;5.07;;;5.80;99.90;;;;;;6205709;23;20074;-86
2022/01/18 09:16:52;;;;;;;17.80;5.55;;;5.80;99.90;;;;;;6167945;23;20020;-87
2022/01/18 09:19:21;;;;;;;18.08;5.82;;;6.80;99.90;;;;;;6207360;23;20046;-83
2022/01/18 09:21:48;;;;;;;17.75;5.90;;;6.30;99.90;;;;;;6231112;23;20104;-86
2022/01/18 09:24:15;;;;;;;17.30;5.22;;;5.80;99.90;;;;;;6229824;23;20055;-84
2022/01/18 09:26:41;;;;;;;11.65;5.30;;;5.80;99.90;;;;;;6209541;23;20452;-84
2022/01/18 09:29:09;;;;;;;17.58;6.25;;;5.80;99.90;;;;;;6206078;23;20451;-85
2022/01/18 09:31:37;;;;;;;20.83;5.78;;;5.80;99.90;;;;;;6185374;23;20020;-85
2022/01/18 09:34:03;;;;;;;25.85;6.03;;;6.20;99.90;;;;;;6208040;23;20051;-86
2022/01/18 09:36:29;;;;;;;15.80;6.95;;;5.80;99.90;;;;;;6231997;23;20024;-85
2022/01/18 09:38:55;;;;;;;17.13;5.82;;;6.20;99.90;;;;;;6157916;23;20019;-85
2022/01/18 09:41:29;;;;;;;21.73;7.07;;;5.90;99.90;;;;;;6208659;23;20027;-85
2022/01/18 09:43:55;;;;;;;23.27;6.53;;;6.10;99.90;;;;;;6205389;23;20020;-84
2022/01/18 09:46:24;;;;;;;26.42;6.88;;;5.80;99.90;;;;;;6182081;23;20446;-84
2022/01/18 09:48:56;;;;;;;18.40;6.50;;;5.80;99.90;;;;;;6203586;23;20050;-85
2022/01/18 09:51:28;;;;;;;20.98;6.72;;;5.90;99.90;;;;;;6202293;23;20031;-84
2022/01/18 09:53:54;;;;;;;23.15;7.38;;;5.90;99.90;;;;;;6175819;23;20162;-85
2022/01/18 09:56:20;;;;;;;21.00;7.03;;;5.90;99.90;;;;;;6175318;23;20052;-85
2022/01/18 09:58:46;;;;;;;19.98;7.15;;;5.90;99.90;;;;;;6176359;23;20031;-85
2022/01/18 10:01:12;;;;;;;24.45;6.65;;;5.90;99.90;;;;;;6177756;23;20103;-85
2022/01/18 10:03:41;;;;;;;24.33;7.15;;;5.90;99.90;;;;;;6200903;23;20086;-85
2022/01/18 10:06:10;;;;;;;17.52;6.82;;;5.90;99.90;;;;;;6176183;23;20055;-82
2022/01/18 10:08:38;;;;;;;19.02;6.00;;;6.00;99.90;;;;;;6224679;23;20451;-83
2022/01/18 10:11:17;;;;;;;18.83;6.80;;;6.00;99.90;;;;;;6200213;23;20588;-83
2022/01/18 10:13:48;;;;;;;16.77;6.05;;;6.00;99.90;;;;;;6191942;23;20017;-83
2022/01/18 10:16:17;;;;;;;14.90;6.32;;;6.00;99.90;;;;;;6172205;23;20032;-83
2022/01/18 10:18:48;;;;;;;17.75;5.57;;;6.10;99.90;;;;;;6170572;23;20024;-82
2022/01/18 10:21:29;;;;;;;17.27;5.88;;;6.10;99.90;;;;;;6196323;23;20422;-82
2022/01/18 10:24:32;;;;;;;21.80;5.78;;;6.10;99.90;;;;;;6194924;23;20020;-83
2022/01/18 10:26:58;;;;;;;19.13;5.97;;;6.20;99.90;;;;;;6169514;23;20102;-83
2022/01/18 10:29:32;;;;;;;15.88;5.55;;;6.20;99.90;;;;;;6173069;23;20020;-83
2022/01/18 10:32:11;;;;;;;15.88;5.95;;;6.30;99.90;;;;;;6197402;23;20024;-83
2022/01/18 10:37:05;;;;;;;17.08;5.45;;;7.00;99.90;;;;;;6221523;23;20127;-82
2022/01/18 10:39:55;;;;;;;20.15;6.18;;;6.40;99.90;;;;;;6171643;23;20640;-83
2022/01/18 10:42:31;;;;;;;16.42;5.32;;;6.50;99.90;;;;;;6187946;23;20020;-83
2022/01/18 10:45:05;;;;;;;13.75;5.32;;;6.50;99.90;;;;;;6200629;23;20100;-84
2022/01/18 10:47:32;;;;;;;15.35;5.35;;;6.50;99.90;;;;;;6199542;23;20052;-84
2022/01/18 10:50:15;;;;;;;15.63;5.22;;;6.10;99.90;;;;;;6199122;23;20020;-83
2022/01/18 10:52:41;;;;;;;16.13;5.63;;;6.70;99.90;;;;;;6202876;23;20020;-84
2022/01/18 10:55:18;;;;;;;16.10;5.97;;;6.70;99.90;;;;;;6180260;23;20107;-82
2022/01/18 10:57:44;;;;;;;19.27;5.90;;;6.70;99.90;;;;;;6202954;23;20099;-83
2022/01/18 11:00:22;;;;;;;15.85;5.85;;;6.70;99.90;;;;;;6204938;23;20411;-84
2022/01/18 11:02:54;;;;;;;14.25;6.30;;;6.60;99.90;;;;;;6205562;23;20012;-83
2022/01/18 11:05:32;;;;;;;15.23;6.10;;;6.70;99.90;;;;;;6231042;23;20391;-84
2022/01/18 11:08:02;;;;;;;14.63;5.25;;;6.70;99.90;;;;;;6180959;23;20275;-83
2022/01/18 11:10:34;;;;;;;14.48;5.50;;;6.20;99.90;;;;;;6181591;23;20103;-84
2022/01/18 11:13:18;;;;;;;13.30;5.10;;;6.70;99.90;;;;;;6206956;23;20020;-87
2022/01/18 11:15:50;;;;;;;20.85;6.45;;;6.70;99.90;;;;;;6206053;23;20028;-86
2022/01/18 11:18:28;;;;;;;21.55;6.20;;;6.80;99.90;;;;;;6182513;23;20030;-86
2022/01/18 11:20:54;;;;;;;18.25;6.75;;;7.20;99.90;;;;;;6183770;23;20027;-84
2022/01/18 11:23:22;;;;;;;14.20;6.10;;;6.60;99.90;;;;;;6203407;23;20016;-86
2022/01/18 11:25:52;;;;;;;20.52;7.40;;;6.70;99.90;;;;;;6182870;23;20020;-84
2022/01/18 11:28:19;;;;;;;16.38;6.35;;;6.60;99.90;;;;;;6206774;23;20016;-84
2022/01/18 11:30:47;;;;;;;21.58;6.82;;;6.70;99.90;;;;;;6206874;23;20035;-85
2022/01/18 11:33:20;;;;;;;15.02;6.70;;;6.70;99.90;;;;;;6206628;23;20498;-84
2022/01/18 11:36:01;;;;;;;16.20;6.07;;;6.80;99.90;;;;;;6206253;23;20107;-84
2022/01/18 11:38:50;;;;;;;15.07;6.07;;;6.70;99.90;;;;;;6206359;23;20024;-84
2022/01/18 11:41:26;;;;;;;17.77;6.20;;;6.70;99.90;;;;;;6183799;23;20494;-85
2022/01/18 11:43:55;;;;;;;21.40;6.20;;;6.80;99.90;;;;;;6207070;23;20022;-84
2022/01/18 11:46:26;;;;;;;16.92;5.82;;;6.90;99.90;;;;;;6207302;23;20016;-84
2022/01/18 11:49:15;;;;;;;21.42;5.47;;;6.90;99.90;;;;;;6206523;23;20016;-84
2022/01/18 11:51:53;;;;;;;13.38;5.40;;;6.80;99.90;;;;;;6206360;23;20717;-84
2022/01/18 11:57:22;;;;;;;11.68;4.70;;;6.80;99.90;;;;;;6231695;23;20024;-84
2022/01/18 11:59:54;;;;;;;10.48;4.47;;;6.80;99.90;;;;;;6180541;23;20028;-84
2022/01/18 12:02:37;;;;;;;12.18;4.90;;;6.80;99.90;;;;;;6205605;23;20027;-84
2022/01/18 12:05:14;;;;;;;12.52;4.82;;;6.80;99.90;;;;;;6206048;23;20020;-84
2022/01/18 12:07:42;;;;;;;10.43;3.90;;;6.80;99.90;;;;;;6231768;23;20029;-84
2022/01/18 12:10:19;;;;;;;10.05;3.80;;;6.80;99.90;;;;;;6181207;23;20113;-83
2022/01/18 12:12:46;;;;;;;6.70;3.05;;;6.90;99.90;;;;;;6181490;23;20031;-84
2022/01/18 12:15:15;;;;;;;8.30;3.30;;;6.80;99.90;;;;;;6181837;23;20020;-84
2022/01/18 12:17:49;;;;;;;11.68;3.85;;;6.80;99.90;;;;;;6206907;23;20019;-84
2022/01/18 12:20:46;;;;;;;11.18;4.80;;;6.80;99.90;;;;;;6205840;23;20024;-86
2022/01/18 12:23:20;;;;;;;10.43;4.40;;;6.80;99.90;;;;;;6206271;23;20024;-86
2022/01/18 12:34:28;;;;;;;13.87;3.97;;;6.70;99.90;;;;;;6200780;23;20017;-85
2022/01/18 12:37:17;;;;;;;10.32;3.97;;;7.00;99.90;;;;;;6208544;23;20024;-86
2022/01/18 12:44:50;;;;;;;9.70;3.42;;;6.70;99.90;;;;;;6250429;23;20026;-86
2022/01/18 12:47:16;;;;;;;9.48;3.83;;;6.80;99.90;;;;;;6204832;23;20016;-85
2022/01/18 12:49:43;;;;;;;9.13;3.50;;;7.60;99.90;;;;;;6203612;23;20014;-86
2022/01/18 12:52:09;;;;;;;9.05;3.55;;;7.20;99.90;;;;;;6210242;23;20004;-84
2022/01/18 12:54:39;;;;;;;11.52;3.70;;;6.80;99.90;;;;;;6206099;23;20052;-84
2022/01/18 12:57:31;;;;;;;13.45;3.90;;;6.70;99.90;;;;;;6190732;23;20024;-85
2022/01/18 13:00:07;;;;;;;13.93;4.78;;;6.70;99.90;;;;;;6181484;23;20355;-82
2022/01/18 13:02:34;;;;;;;8.95;3.10;;;6.70;99.90;;;;;;6212961;23;20671;-84
2022/01/18 13:05:06;;;;;;;9.90;3.50;;;6.70;99.90;;;;;;6213227;23;20070;-84
2022/01/18 13:07:31;;;;;;;8.55;3.42;;;6.70;99.90;;;;;;6211508;23;20075;-84
2022/01/18 13:10:07;;;;;;;10.80;3.47;;;6.60;99.90;;;;;;6187582;23;20027;-85
2022/01/18 13:12:37;;;;;;;9.93;3.40;;;6.60;99.90;;;;;;6229271;22;20008;-84
2022/01/18 13:15:06;;;;;;;9.02;3.05;;;6.60;99.90;;;;;;6239842;22;20012;-85
2022/01/18 13:23:34;;;;;;;8.07;2.97;;;6.50;99.90;;;;;;6239541;22;20008;-86
2022/01/18 13:26:02;;;;;;;6.70;2.88;;;6.50;99.90;;;;;;6216457;22;20031;-86
2022/01/18 13:28:35;;;;;;;8.68;3.08;;;6.50;99.90;;;;;;6213296;22;20088;-85
2022/01/18 13:31:19;;;;;;;6.20;2.65;;;6.50;99.90;;;;;;6213212;22;20012;-85
2022/01/18 13:34:00;;;;;;;12.52;3.15;;;6.40;99.90;;;;;;6238189;23;20023;-86
2022/01/18 13:36:29;;;;;;;13.48;3.85;;;6.50;99.90;;;;;;6237352;22;20030;-86
2022/01/18 13:38:55;;;;;;;11.93;3.47;;;6.30;99.90;;;;;;6213206;22;20027;-86
2022/01/18 13:41:21;;;;;;;10.00;3.65;;;6.30;99.90;;;;;;6212254;22;20016;-86
2022/01/18 13:43:48;;;;;;;10.10;3.88;;;6.50;99.90;;;;;;6212005;22;20004;-85
2022/01/18 13:46:24;;;;;;;11.05;3.78;;;6.40;99.90;;;;;;6212304;23;20012;-85
2022/01/18 13:49:04;;;;;;;9.70;3.40;;;6.30;99.90;;;;;;6237284;23;20046;-85
2022/01/18 13:51:30;;;;;;;14.30;4.07;;;6.30;99.90;;;;;;6237337;22;20035;-86
2022/01/18 13:54:06;;;;;;;9.35;3.17;;;6.30;99.90;;;;;;6211776;22;20068;-85
2022/01/18 13:56:32;;;;;;;12.88;3.88;;;6.30;99.90;;;;;;6239122;22;20012;-85
2022/01/18 13:59:06;;;;;;;12.45;4.50;;;6.30;99.90;;;;;;6211249;22;20257;-86
2022/01/18 14:01:37;;;;;;;13.30;3.90;;;6.30;99.90;;;;;;6208515;22;20012;-85
2022/01/18 14:04:24;;;;;;;9.68;3.67;;;7.10;99.90;;;;;;6234661;22;20012;-85
2022/01/18 14:06:51;;;;;;;9.68;3.33;;;6.30;99.90;;;;;;6247984;22;20031;-86
2022/01/18 14:09:22;;;;;;;11.32;3.58;;;6.30;99.90;;;;;;6209036;22;20023;-85
2022/01/18 14:11:54;;;;;;;8.27;3.78;;;5.50;99.90;;;;;;6232950;22;20011;-86
2022/01/18 14:14:21;;;;;;;14.40;3.95;;;6.40;99.90;;;;;;6234376;22;20016;-86
2022/01/18 14:16:50;;;;;;;10.57;3.65;;;6.30;99.90;;;;;;6233439;22;20036;-86
2022/01/18 14:19:40;;;;;;;10.48;4.00;;;6.20;99.90;;;;;;6233353;22;20012;-86
2022/01/18 14:22:23;;;;;;;11.55;4.00;;;6.20;99.90;;;;;;6232149;22;20100;-85
2022/01/18 14:24:59;;;;;;;13.48;4.07;;;6.20;99.90;;;;;;6229871;23;20075;-86
2022/01/18 14:27:29;;;;;;;11.55;3.95;;;6.50;99.90;;;;;;6237366;23;20020;-86
2022/01/18 14:29:57;;;;;;;9.55;3.30;;;6.20;99.90;;;;;;6237018;22;20043;-86
2022/01/18 14:32:41;;;;;;;12.63;3.53;;;6.20;99.90;;;;;;6237692;22;20012;-85
2022/01/18 14:35:11;;;;;;;16.63;4.13;;;6.10;99.90;;;;;;6235032;22;20026;-86
2022/01/18 14:37:50;;;;;;;12.95;3.63;;;6.70;99.90;;;;;;6260461;22;20004;-86